sensor_id;sensor_type;location;lat;lon;timestamp;P1;durP1;ratioP1;P2;durP2;ratioP2
13741;SDS011;8461;52.356;10.704;2023-02-24T00:01:23;10.77;;;2.30;;
13741;SDS011;8461;52.356;10.704;2023-02-24T00:03:56;8.93;;;2.43;;
13741;SDS011;8461;52.356;10.704;2023-02-24T00:06:24;17.53;;;2.47;;
13741;SDS011;8461;52.356;10.704;2023-02-24T00:08:50;18.03;;;2.67;;
13741;SDS011;8461;52.356;10.704;2023-02-24T00:11:17;13.77;;;2.07;;
13741;SDS011;8461;52.356;10.704;2023-02-24T00:13:44;6.43;;;1.60;;
13741;SDS011;8461;52.356;10.704;2023-02-24T00:16:14;7.67;;;1.73;;
13741;SDS011;8461;52.356;10.704;2023-02-24T00:18:41;13.50;;;1.77;;
13741;SDS011;8461;52.356;10.704;2023-02-24T00:21:09;9.67;;;2.73;;
13741;SDS011;8461;52.356;10.704;2023-02-24T00:23:38;11.93;;;2.53;;
13741;SDS011;8461;52.356;10.704;2023-02-24T00:26:05;11.47;;;1.73;;
13741;SDS011;8461;52.356;10.704;2023-02-24T00:28:33;10.93;;;2.17;;
13741;SDS011;8461;52.356;10.704;2023-02-24T00:31:03;9.57;;;2.13;;
13741;SDS011;8461;52.356;10.704;2023-02-24T00:33:30;7.03;;;2.10;;
13741;SDS011;8461;52.356;10.704;2023-02-24T00:38:32;11.43;;;2.03;;
13741;SDS011;8461;52.356;10.704;2023-02-24T00:41:00;8.60;;;1.90;;
13741;SDS011;8461;52.356;10.704;2023-02-24T00:43:32;9.33;;;2.17;;
13741;SDS011;8461;52.356;10.704;2023-02-24T00:46:01;6.47;;;1.43;;
13741;SDS011;8461;52.356;10.704;2023-02-24T00:48:27;7.37;;;1.73;;
13741;SDS011;8461;52.356;10.704;2023-02-24T00:50:53;10.13;;;2.70;;
13741;SDS011;8461;52.356;10.704;2023-02-24T00:53:18;9.83;;;2.23;;
13741;SDS011;8461;52.356;10.704;2023-02-24T00:55:44;11.03;;;1.77;;
13741;SDS011;8461;52.356;10.704;2023-02-24T00:58:09;8.20;;;1.87;;
13741;SDS011;8461;52.356;10.704;2023-02-24T01:00:35;9.47;;;1.83;;
13741;SDS011;8461;52.356;10.704;2023-02-24T01:03:01;8.77;;;2.33;;
13741;SDS011;8461;52.356;10.704;2023-02-24T01:05:27;8.70;;;2.80;;
13741;SDS011;8461;52.356;10.704;2023-02-24T01:07:53;10.77;;;1.73;;
13741;SDS011;8461;52.356;10.704;2023-02-24T01:10:18;14.67;;;2.13;;
13741;SDS011;8461;52.356;10.704;2023-02-24T01:12:47;10.43;;;2.20;;
13741;SDS011;8461;52.356;10.704;2023-02-24T01:15:18;11.27;;;1.93;;
13741;SDS011;8461;52.356;10.704;2023-02-24T01:17:45;10.67;;;2.17;;
13741;SDS011;8461;52.356;10.704;2023-02-24T01:20:12;12.00;;;2.10;;
13741;SDS011;8461;52.356;10.704;2023-02-24T01:22:42;8.30;;;2.63;;
13741;SDS011;8461;52.356;10.704;2023-02-24T01:25:09;12.50;;;2.07;;
13741;SDS011;8461;52.356;10.704;2023-02-24T01:27:35;6.43;;;1.93;;
13741;SDS011;8461;52.356;10.704;2023-02-24T01:30:02;11.20;;;2.10;;
13741;SDS011;8461;52.356;10.704;2023-02-24T01:32:29;16.03;;;2.33;;
13741;SDS011;8461;52.356;10.704;2023-02-24T01:34:55;6.83;;;1.93;;
13741;SDS011;8461;52.356;10.704;2023-02-24T01:37:21;9.97;;;2.40;;
13741;SDS011;8461;52.356;10.704;2023-02-24T01:39:48;8.73;;;2.07;;
13741;SDS011;8461;52.356;10.704;2023-02-24T01:42:15;15.03;;;2.43;;
13741;SDS011;8461;52.356;10.704;2023-02-24T01:47:12;7.30;;;1.87;;
13741;SDS011;8461;52.356;10.704;2023-02-24T01:49:41;12.07;;;1.83;;
13741;SDS011;8461;52.356;10.704;2023-02-24T01:52:11;6.33;;;1.60;;
13741;SDS011;8461;52.356;10.704;2023-02-24T01:54:45;14.80;;;2.23;;
13741;SDS011;8461;52.356;10.704;2023-02-24T01:57:16;10.93;;;2.13;;
13741;SDS011;8461;52.356;10.704;2023-02-24T01:59:45;8.07;;;1.90;;
13741;SDS011;8461;52.356;10.704;2023-02-24T02:02:13;8.30;;;2.03;;
13741;SDS011;8461;52.356;10.704;2023-02-24T02:07:06;6.53;;;1.87;;
13741;SDS011;8461;52.356;10.704;2023-02-24T02:09:35;10.40;;;1.77;;
13741;SDS011;8461;52.356;10.704;2023-02-24T02:12:02;9.60;;;2.00;;
13741;SDS011;8461;52.356;10.704;2023-02-24T02:14:28;11.20;;;2.23;;
13741;SDS011;8461;52.356;10.704;2023-02-24T02:27:13;7.33;;;1.33;;
13741;SDS011;8461;52.356;10.704;2023-02-24T02:34:55;6.13;;;2.00;;
13741;SDS011;8461;52.356;10.704;2023-02-24T02:37:33;7.27;;;1.67;;
13741;SDS011;8461;52.356;10.704;2023-02-24T02:40:07;9.77;;;2.27;;
13741;SDS011;8461;52.356;10.704;2023-02-24T02:42:46;5.73;;;2.00;;
13741;SDS011;8461;52.356;10.704;2023-02-24T02:48:00;8.57;;;2.37;;
13741;SDS011;8461;52.356;10.704;2023-02-24T02:50:32;7.17;;;2.10;;
13741;SDS011;8461;52.356;10.704;2023-02-24T02:53:03;8.33;;;2.13;;
13741;SDS011;8461;52.356;10.704;2023-02-24T02:55:37;9.80;;;1.83;;
13741;SDS011;8461;52.356;10.704;2023-02-24T02:58:12;19.27;;;3.50;;
13741;SDS011;8461;52.356;10.704;2023-02-24T03:00:47;7.87;;;2.10;;
13741;SDS011;8461;52.356;10.704;2023-02-24T03:03:25;6.63;;;1.60;;
13741;SDS011;8461;52.356;10.704;2023-02-24T03:05:56;5.47;;;1.93;;
13741;SDS011;8461;52.356;10.704;2023-02-24T03:08:28;6.20;;;2.20;;
13741;SDS011;8461;52.356;10.704;2023-02-24T03:10:58;9.23;;;1.70;;
13741;SDS011;8461;52.356;10.704;2023-02-24T03:13:26;11.60;;;1.80;;
13741;SDS011;8461;52.356;10.704;2023-02-24T03:15:56;9.00;;;1.50;;
13741;SDS011;8461;52.356;10.704;2023-02-24T03:18:27;5.07;;;1.40;;
13741;SDS011;8461;52.356;10.704;2023-02-24T03:20:58;7.17;;;1.30;;
13741;SDS011;8461;52.356;10.704;2023-02-24T03:23:46;4.87;;;1.63;;
13741;SDS011;8461;52.356;10.704;2023-02-24T03:26:17;6.40;;;1.50;;
13741;SDS011;8461;52.356;10.704;2023-02-24T03:28:57;7.73;;;1.87;;
13741;SDS011;8461;52.356;10.704;2023-02-24T03:31:30;13.27;;;1.63;;
13741;SDS011;8461;52.356;10.704;2023-02-24T03:34:07;6.07;;;1.30;;
13741;SDS011;8461;52.356;10.704;2023-02-24T03:36:38;10.40;;;1.97;;
13741;SDS011;8461;52.356;10.704;2023-02-24T03:39:04;4.80;;;1.50;;
13741;SDS011;8461;52.356;10.704;2023-02-24T03:41:36;7.57;;;1.23;;
13741;SDS011;8461;52.356;10.704;2023-02-24T03:44:14;5.50;;;1.10;;
13741;SDS011;8461;52.356;10.704;2023-02-24T03:46:39;7.23;;;1.40;;
13741;SDS011;8461;52.356;10.704;2023-02-24T03:49:10;5.27;;;1.40;;
13741;SDS011;8461;52.356;10.704;2023-02-24T03:51:37;4.67;;;1.27;;
13741;SDS011;8461;52.356;10.704;2023-02-24T03:54:16;9.70;;;1.70;;
13741;SDS011;8461;52.356;10.704;2023-02-24T04:02:17;3.93;;;1.33;;
13741;SDS011;8461;52.356;10.704;2023-02-24T04:04:50;5.07;;;0.97;;
13741;SDS011;8461;52.356;10.704;2023-02-24T04:12:49;3.33;;;1.10;;
13741;SDS011;8461;52.356;10.704;2023-02-24T04:15:42;2.50;;;1.10;;
13741;SDS011;8461;52.356;10.704;2023-02-24T04:18:16;4.50;;;1.43;;
13741;SDS011;8461;52.356;10.704;2023-02-24T04:20:45;6.30;;;1.10;;
13741;SDS011;8461;52.356;10.704;2023-02-24T04:23:17;2.87;;;1.13;;
13741;SDS011;8461;52.356;10.704;2023-02-24T04:25:48;5.43;;;1.07;;
13741;SDS011;8461;52.356;10.704;2023-02-24T04:28:16;7.40;;;1.23;;
13741;SDS011;8461;52.356;10.704;2023-02-24T04:30:46;12.20;;;1.87;;
13741;SDS011;8461;52.356;10.704;2023-02-24T04:33:14;7.57;;;1.57;;
13741;SDS011;8461;52.356;10.704;2023-02-24T04:35:42;7.00;;;1.43;;
13741;SDS011;8461;52.356;10.704;2023-02-24T04:38:09;9.67;;;1.70;;
13741;SDS011;8461;52.356;10.704;2023-02-24T04:40:35;8.47;;;1.63;;
13741;SDS011;8461;52.356;10.704;2023-02-24T04:43:00;5.73;;;2.07;;
13741;SDS011;8461;52.356;10.704;2023-02-24T04:45:27;6.53;;;1.83;;
13741;SDS011;8461;52.356;10.704;2023-02-24T04:47:55;5.07;;;1.30;;
13741;SDS011;8461;52.356;10.704;2023-02-24T04:50:25;4.83;;;1.60;;
13741;SDS011;8461;52.356;10.704;2023-02-24T04:52:53;7.93;;;1.60;;
13741;SDS011;8461;52.356;10.704;2023-02-24T04:55:19;6.93;;;1.37;;
13741;SDS011;8461;52.356;10.704;2023-02-24T04:57:47;10.30;;;1.63;;
13741;SDS011;8461;52.356;10.704;2023-02-24T05:00:16;7.90;;;1.60;;
13741;SDS011;8461;52.356;10.704;2023-02-24T05:02:49;7.33;;;1.40;;
13741;SDS011;8461;52.356;10.704;2023-02-24T05:05:16;5.73;;;1.17;;
13741;SDS011;8461;52.356;10.704;2023-02-24T05:07:49;6.13;;;1.53;;
13741;SDS011;8461;52.356;10.704;2023-02-24T05:10:49;4.63;;;1.10;;
13741;SDS011;8461;52.356;10.704;2023-02-24T05:13:16;7.50;;;1.10;;
13741;SDS011;8461;52.356;10.704;2023-02-24T05:15:44;7.47;;;1.30;;
13741;SDS011;8461;52.356;10.704;2023-02-24T05:18:11;4.83;;;1.37;;
13741;SDS011;8461;52.356;10.704;2023-02-24T05:20:39;2.33;;;1.10;;
13741;SDS011;8461;52.356;10.704;2023-02-24T05:23:29;7.33;;;1.30;;
13741;SDS011;8461;52.356;10.704;2023-02-24T05:26:00;5.60;;;1.17;;
13741;SDS011;8461;52.356;10.704;2023-02-24T05:28:28;7.70;;;1.43;;
13741;SDS011;8461;52.356;10.704;2023-02-24T05:31:02;2.83;;;1.13;;
13741;SDS011;8461;52.356;10.704;2023-02-24T05:33:48;5.03;;;1.57;;
13741;SDS011;8461;52.356;10.704;2023-02-24T05:36:18;4.27;;;2.07;;
13741;SDS011;8461;52.356;10.704;2023-02-24T05:38:46;4.87;;;1.60;;
13741;SDS011;8461;52.356;10.704;2023-02-24T05:41:14;4.37;;;1.87;;
13741;SDS011;8461;52.356;10.704;2023-02-24T05:43:42;9.53;;;2.73;;
13741;SDS011;8461;52.356;10.704;2023-02-24T05:46:12;16.73;;;6.40;;
13741;SDS011;8461;52.356;10.704;2023-02-24T05:48:41;10.60;;;3.23;;
13741;SDS011;8461;52.356;10.704;2023-02-24T05:51:09;20.50;;;7.20;;
13741;SDS011;8461;52.356;10.704;2023-02-24T05:53:36;28.67;;;10.77;;
13741;SDS011;8461;52.356;10.704;2023-02-24T05:56:06;4.00;;;1.50;;
13741;SDS011;8461;52.356;10.704;2023-02-24T05:58:35;4.57;;;2.33;;
13741;SDS011;8461;52.356;10.704;2023-02-24T06:01:10;2.93;;;1.30;;
13741;SDS011;8461;52.356;10.704;2023-02-24T06:03:41;5.00;;;1.00;;
13741;SDS011;8461;52.356;10.704;2023-02-24T06:06:10;6.13;;;1.20;;
13741;SDS011;8461;52.356;10.704;2023-02-24T06:08:36;2.70;;;1.47;;
13741;SDS011;8461;52.356;10.704;2023-02-24T06:11:22;4.27;;;1.00;;
13741;SDS011;8461;52.356;10.704;2023-02-24T06:13:48;5.70;;;1.10;;
13741;SDS011;8461;52.356;10.704;2023-02-24T06:16:14;7.93;;;1.23;;
13741;SDS011;8461;52.356;10.704;2023-02-24T06:18:41;2.00;;;0.90;;
13741;SDS011;8461;52.356;10.704;2023-02-24T06:21:08;1.53;;;0.70;;
13741;SDS011;8461;52.356;10.704;2023-02-24T06:23:36;2.60;;;1.03;;
13741;SDS011;8461;52.356;10.704;2023-02-24T06:26:03;6.77;;;2.13;;
13741;SDS011;8461;52.356;10.704;2023-02-24T06:28:35;1.43;;;0.60;;
13741;SDS011;8461;52.356;10.704;2023-02-24T06:31:04;1.93;;;0.77;;
13741;SDS011;8461;52.356;10.704;2023-02-24T06:33:33;1.33;;;0.70;;
13741;SDS011;8461;52.356;10.704;2023-02-24T06:36:00;7.30;;;1.30;;
13741;SDS011;8461;52.356;10.704;2023-02-24T06:38:28;5.07;;;0.90;;
13741;SDS011;8461;52.356;10.704;2023-02-24T06:40:58;1.00;;;0.77;;
13741;SDS011;8461;52.356;10.704;2023-02-24T06:43:27;2.33;;;1.23;;
13741;SDS011;8461;52.356;10.704;2023-02-24T06:45:52;5.17;;;1.00;;
13741;SDS011;8461;52.356;10.704;2023-02-24T06:48:18;5.70;;;1.50;;
13741;SDS011;8461;52.356;10.704;2023-02-24T06:50:44;2.87;;;1.20;;
13741;SDS011;8461;52.356;10.704;2023-02-24T06:53:10;1.73;;;0.73;;
13741;SDS011;8461;52.356;10.704;2023-02-24T06:55:41;1.77;;;0.87;;
13741;SDS011;8461;52.356;10.704;2023-02-24T06:58:12;0.70;;;0.70;;
13741;SDS011;8461;52.356;10.704;2023-02-24T07:00:43;1.77;;;0.70;;
13741;SDS011;8461;52.356;10.704;2023-02-24T07:03:20;5.23;;;1.00;;
13741;SDS011;8461;52.356;10.704;2023-02-24T07:05:49;4.10;;;0.80;;
13741;SDS011;8461;52.356;10.704;2023-02-24T07:08:34;3.30;;;1.07;;
13741;SDS011;8461;52.356;10.704;2023-02-24T07:11:02;4.10;;;0.97;;
13741;SDS011;8461;52.356;10.704;2023-02-24T07:13:30;0.83;;;0.60;;
13741;SDS011;8461;52.356;10.704;2023-02-24T07:15:58;3.40;;;0.90;;
13741;SDS011;8461;52.356;10.704;2023-02-24T07:18:34;1.70;;;0.60;;
13741;SDS011;8461;52.356;10.704;2023-02-24T07:21:00;3.93;;;0.70;;
13741;SDS011;8461;52.356;10.704;2023-02-24T07:23:30;4.17;;;0.70;;
13741;SDS011;8461;52.356;10.704;2023-02-24T07:25:56;2.00;;;0.50;;
13741;SDS011;8461;52.356;10.704;2023-02-24T07:28:22;3.17;;;1.20;;
13741;SDS011;8461;52.356;10.704;2023-02-24T07:30:49;5.70;;;1.00;;
13741;SDS011;8461;52.356;10.704;2023-02-24T07:33:16;1.47;;;0.60;;
13741;SDS011;8461;52.356;10.704;2023-02-24T07:35:48;2.13;;;1.33;;
13741;SDS011;8461;52.356;10.704;2023-02-24T07:38:15;3.00;;;0.90;;
13741;SDS011;8461;52.356;10.704;2023-02-24T07:40:41;3.37;;;0.77;;
13741;SDS011;8461;52.356;10.704;2023-02-24T07:43:07;1.63;;;0.90;;
13741;SDS011;8461;52.356;10.704;2023-02-24T07:45:32;1.53;;;0.83;;
13741;SDS011;8461;52.356;10.704;2023-02-24T07:47:58;3.60;;;0.90;;
13741;SDS011;8461;52.356;10.704;2023-02-24T07:50:26;2.40;;;1.00;;
13741;SDS011;8461;52.356;10.704;2023-02-24T07:52:56;5.03;;;1.20;;
13741;SDS011;8461;52.356;10.704;2023-02-24T07:55:23;4.00;;;0.80;;
13741;SDS011;8461;52.356;10.704;2023-02-24T07:57:49;1.67;;;0.70;;
13741;SDS011;8461;52.356;10.704;2023-02-24T08:00:15;1.90;;;0.63;;
13741;SDS011;8461;52.356;10.704;2023-02-24T08:02:45;1.90;;;0.80;;
13741;SDS011;8461;52.356;10.704;2023-02-24T08:05:15;0.77;;;0.50;;
13741;SDS011;8461;52.356;10.704;2023-02-24T08:07:45;4.90;;;0.70;;
13741;SDS011;8461;52.356;10.704;2023-02-24T08:10:17;1.60;;;0.57;;
13741;SDS011;8461;52.356;10.704;2023-02-24T08:12:55;8.70;;;1.00;;
13741;SDS011;8461;52.356;10.704;2023-02-24T08:15:26;4.80;;;1.03;;
13741;SDS011;8461;52.356;10.704;2023-02-24T08:17:57;2.37;;;0.50;;
13741;SDS011;8461;52.356;10.704;2023-02-24T08:20:25;2.33;;;0.40;;
13741;SDS011;8461;52.356;10.704;2023-02-24T08:22:53;1.60;;;0.40;;
13741;SDS011;8461;52.356;10.704;2023-02-24T08:25:20;4.27;;;1.00;;
13741;SDS011;8461;52.356;10.704;2023-02-24T08:27:50;1.27;;;0.83;;
13741;SDS011;8461;52.356;10.704;2023-02-24T08:30:20;2.30;;;0.67;;
13741;SDS011;8461;52.356;10.704;2023-02-24T08:32:53;2.63;;;0.43;;
13741;SDS011;8461;52.356;10.704;2023-02-24T08:35:22;0.97;;;0.70;;
13741;SDS011;8461;52.356;10.704;2023-02-24T08:37:55;3.83;;;0.53;;
13741;SDS011;8461;52.356;10.704;2023-02-24T08:40:29;3.70;;;0.63;;
13741;SDS011;8461;52.356;10.704;2023-02-24T08:42:57;4.63;;;0.57;;
13741;SDS011;8461;52.356;10.704;2023-02-24T08:48:29;4.23;;;0.73;;
13741;SDS011;8461;52.356;10.704;2023-02-24T08:53:46;4.23;;;0.90;;
13741;SDS011;8461;52.356;10.704;2023-02-24T08:56:13;4.03;;;0.80;;
13741;SDS011;8461;52.356;10.704;2023-02-24T08:58:47;1.70;;;0.40;;
13741;SDS011;8461;52.356;10.704;2023-02-24T09:01:16;1.40;;;0.50;;
13741;SDS011;8461;52.356;10.704;2023-02-24T09:03:44;4.60;;;0.90;;
13741;SDS011;8461;52.356;10.704;2023-02-24T09:06:11;0.73;;;0.50;;
13741;SDS011;8461;52.356;10.704;2023-02-24T09:08:40;9.20;;;0.60;;
13741;SDS011;8461;52.356;10.704;2023-02-24T09:11:08;4.80;;;1.17;;
13741;SDS011;8461;52.356;10.704;2023-02-24T09:13:39;3.63;;;1.10;;
13741;SDS011;8461;52.356;10.704;2023-02-24T09:16:23;4.23;;;1.30;;
13741;SDS011;8461;52.356;10.704;2023-02-24T09:18:49;4.90;;;1.00;;
13741;SDS011;8461;52.356;10.704;2023-02-24T09:21:35;3.77;;;0.83;;
13741;SDS011;8461;52.356;10.704;2023-02-24T09:24:14;3.07;;;0.93;;
13741;SDS011;8461;52.356;10.704;2023-02-24T09:26:51;1.30;;;0.47;;
13741;SDS011;8461;52.356;10.704;2023-02-24T09:29:23;2.83;;;0.87;;
13741;SDS011;8461;52.356;10.704;2023-02-24T09:31:57;1.40;;;0.57;;
13741;SDS011;8461;52.356;10.704;2023-02-24T09:34:31;1.50;;;0.47;;
13741;SDS011;8461;52.356;10.704;2023-02-24T09:37:01;1.53;;;0.50;;
13741;SDS011;8461;52.356;10.704;2023-02-24T09:39:31;3.57;;;1.07;;
13741;SDS011;8461;52.356;10.704;2023-02-24T09:42:21;1.00;;;0.40;;
13741;SDS011;8461;52.356;10.704;2023-02-24T09:44:59;2.20;;;1.20;;
13741;SDS011;8461;52.356;10.704;2023-02-24T09:52:54;7.90;;;1.10;;
13741;SDS011;8461;52.356;10.704;2023-02-24T09:55:40;2.37;;;0.87;;
13741;SDS011;8461;52.356;10.704;2023-02-24T10:00:55;1.70;;;0.40;;
13741;SDS011;8461;52.356;10.704;2023-02-24T10:06:54;8.97;;;0.93;;
13741;SDS011;8461;52.356;10.704;2023-02-24T10:12:21;2.97;;;0.83;;
13741;SDS011;8461;52.356;10.704;2023-02-24T10:17:40;2.13;;;0.83;;
13741;SDS011;8461;52.356;10.704;2023-02-24T10:29:08;4.60;;;0.73;;
13741;SDS011;8461;52.356;10.704;2023-02-24T10:31:59;3.17;;;1.50;;
13741;SDS011;8461;52.356;10.704;2023-02-24T10:34:47;3.67;;;0.77;;
13741;SDS011;8461;52.356;10.704;2023-02-24T10:37:18;1.03;;;0.60;;
13741;SDS011;8461;52.356;10.704;2023-02-24T10:39:46;2.53;;;1.07;;
13741;SDS011;8461;52.356;10.704;2023-02-24T10:42:27;4.77;;;0.90;;
13741;SDS011;8461;52.356;10.704;2023-02-24T10:47:57;1.13;;;0.70;;
13741;SDS011;8461;52.356;10.704;2023-02-24T10:52:54;2.00;;;0.80;;
13741;SDS011;8461;52.356;10.704;2023-02-24T10:55:28;5.13;;;1.33;;
13741;SDS011;8461;52.356;10.704;2023-02-24T10:58:10;3.90;;;1.00;;
13741;SDS011;8461;52.356;10.704;2023-02-24T11:00:52;6.97;;;0.70;;
13741;SDS011;8461;52.356;10.704;2023-02-24T11:03:36;6.97;;;1.27;;
13741;SDS011;8461;52.356;10.704;2023-02-24T11:06:25;8.10;;;1.57;;
13741;SDS011;8461;52.356;10.704;2023-02-24T11:09:04;2.60;;;1.20;;
13741;SDS011;8461;52.356;10.704;2023-02-24T11:11:46;3.57;;;1.87;;
13741;SDS011;8461;52.356;10.704;2023-02-24T11:14:37;2.60;;;1.07;;
13741;SDS011;8461;52.356;10.704;2023-02-24T11:17:30;8.63;;;2.13;;
13741;SDS011;8461;52.356;10.704;2023-02-24T11:19:57;5.07;;;1.37;;
13741;SDS011;8461;52.356;10.704;2023-02-24T11:22:35;1.40;;;1.30;;
13741;SDS011;8461;52.356;10.704;2023-02-24T11:25:05;3.33;;;1.87;;
13741;SDS011;8461;52.356;10.704;2023-02-24T11:27:44;3.40;;;1.30;;
13741;SDS011;8461;52.356;10.704;2023-02-24T11:30:16;3.07;;;1.60;;
13741;SDS011;8461;52.356;10.704;2023-02-24T11:38:39;8.80;;;2.03;;
13741;SDS011;8461;52.356;10.704;2023-02-24T11:41:32;2.83;;;1.57;;
13741;SDS011;8461;52.356;10.704;2023-02-24T11:44:08;4.37;;;1.90;;
13741;SDS011;8461;52.356;10.704;2023-02-24T11:46:46;4.00;;;1.70;;
13741;SDS011;8461;52.356;10.704;2023-02-24T11:49:40;8.47;;;2.17;;
13741;SDS011;8461;52.356;10.704;2023-02-24T11:52:09;1.27;;;1.00;;
13741;SDS011;8461;52.356;10.704;2023-02-24T11:54:57;1.37;;;1.23;;
13741;SDS011;8461;52.356;10.704;2023-02-24T11:57:27;5.03;;;2.30;;
13741;SDS011;8461;52.356;10.704;2023-02-24T12:00:07;2.83;;;1.67;;
13741;SDS011;8461;52.356;10.704;2023-02-24T12:05:24;6.30;;;2.10;;
13741;SDS011;8461;52.356;10.704;2023-02-24T12:10:33;2.33;;;1.93;;
13741;SDS011;8461;52.356;10.704;2023-02-24T12:15:41;5.17;;;2.23;;
13741;SDS011;8461;52.356;10.704;2023-02-24T12:18:23;1.90;;;1.33;;
13741;SDS011;8461;52.356;10.704;2023-02-24T12:21:04;3.23;;;2.13;;
13741;SDS011;8461;52.356;10.704;2023-02-24T12:23:33;4.07;;;2.40;;
13741;SDS011;8461;52.356;10.704;2023-02-24T12:26:20;1.47;;;1.37;;
13741;SDS011;8461;52.356;10.704;2023-02-24T12:37:41;3.73;;;1.83;;
13741;SDS011;8461;52.356;10.704;2023-02-24T12:40:25;2.77;;;1.90;;
13741;SDS011;8461;52.356;10.704;2023-02-24T12:48:27;2.73;;;2.03;;
13741;SDS011;8461;52.356;10.704;2023-02-24T12:51:07;3.93;;;2.37;;
13741;SDS011;8461;52.356;10.704;2023-02-24T12:54:04;4.93;;;2.77;;
13741;SDS011;8461;52.356;10.704;2023-02-24T12:56:50;5.50;;;2.97;;
13741;SDS011;8461;52.356;10.704;2023-02-24T12:59:27;3.73;;;2.83;;
13741;SDS011;8461;52.356;10.704;2023-02-24T13:02:00;8.53;;;3.03;;
13741;SDS011;8461;52.356;10.704;2023-02-24T13:15:29;3.93;;;3.37;;
13741;SDS011;8461;52.356;10.704;2023-02-24T13:17:57;3.27;;;2.30;;
13741;SDS011;8461;52.356;10.704;2023-02-24T13:20:25;5.40;;;3.73;;
13741;SDS011;8461;52.356;10.704;2023-02-24T13:22:58;3.87;;;3.20;;
13741;SDS011;8461;52.356;10.704;2023-02-24T13:25:34;4.77;;;3.17;;
13741;SDS011;8461;52.356;10.704;2023-02-24T13:28:02;6.93;;;2.80;;
13741;SDS011;8461;52.356;10.704;2023-02-24T13:38:36;7.30;;;4.47;;
13741;SDS011;8461;52.356;10.704;2023-02-24T13:43:56;5.03;;;3.60;;
13741;SDS011;8461;52.356;10.704;2023-02-24T13:46:22;6.43;;;3.60;;
13741;SDS011;8461;52.356;10.704;2023-02-24T13:48:53;7.63;;;4.63;;
13741;SDS011;8461;52.356;10.704;2023-02-24T13:54:19;3.97;;;3.33;;
13741;SDS011;8461;52.356;10.704;2023-02-24T13:57:00;4.20;;;3.60;;
13741;SDS011;8461;52.356;10.704;2023-02-24T14:02:36;5.73;;;4.40;;
13741;SDS011;8461;52.356;10.704;2023-02-24T14:05:28;6.53;;;3.30;;
13741;SDS011;8461;52.356;10.704;2023-02-24T14:07:55;4.37;;;3.03;;
13741;SDS011;8461;52.356;10.704;2023-02-24T14:10:22;7.67;;;4.73;;
13741;SDS011;8461;52.356;10.704;2023-02-24T14:13:24;4.30;;;3.50;;
13741;SDS011;8461;52.356;10.704;2023-02-24T14:15:52;4.23;;;3.50;;
13741;SDS011;8461;52.356;10.704;2023-02-24T14:18:25;4.87;;;4.10;;
13741;SDS011;8461;52.356;10.704;2023-02-24T14:20:53;4.20;;;3.60;;
13741;SDS011;8461;52.356;10.704;2023-02-24T14:23:21;4.17;;;2.63;;
13741;SDS011;8461;52.356;10.704;2023-02-24T14:25:56;8.60;;;4.87;;
13741;SDS011;8461;52.356;10.704;2023-02-24T14:28:27;10.20;;;6.07;;
13741;SDS011;8461;52.356;10.704;2023-02-24T14:30:56;4.13;;;3.20;;
13741;SDS011;8461;52.356;10.704;2023-02-24T14:33:27;7.07;;;4.07;;
13741;SDS011;8461;52.356;10.704;2023-02-24T14:35:58;8.83;;;7.27;;
13741;SDS011;8461;52.356;10.704;2023-02-24T14:38:34;8.27;;;4.27;;
13741;SDS011;8461;52.356;10.704;2023-02-24T14:41:06;8.43;;;6.60;;
13741;SDS011;8461;52.356;10.704;2023-02-24T14:43:43;8.03;;;6.17;;
13741;SDS011;8461;52.356;10.704;2023-02-24T14:46:08;4.53;;;3.93;;
13741;SDS011;8461;52.356;10.704;2023-02-24T14:48:34;7.17;;;5.53;;
13741;SDS011;8461;52.356;10.704;2023-02-24T14:51:04;8.40;;;6.97;;
13741;SDS011;8461;52.356;10.704;2023-02-24T14:53:35;10.53;;;6.77;;
13741;SDS011;8461;52.356;10.704;2023-02-24T14:56:07;9.10;;;6.47;;
13741;SDS011;8461;52.356;10.704;2023-02-24T14:58:40;7.13;;;5.10;;
13741;SDS011;8461;52.356;10.704;2023-02-24T15:01:19;6.37;;;4.90;;
13741;SDS011;8461;52.356;10.704;2023-02-24T15:03:55;6.50;;;4.77;;
13741;SDS011;8461;52.356;10.704;2023-02-24T15:06:27;10.27;;;7.60;;
13741;SDS011;8461;52.356;10.704;2023-02-24T15:08:59;9.10;;;7.10;;
13741;SDS011;8461;52.356;10.704;2023-02-24T15:11:29;8.40;;;6.93;;
13741;SDS011;8461;52.356;10.704;2023-02-24T15:14:02;8.80;;;7.47;;
13741;SDS011;8461;52.356;10.704;2023-02-24T15:19:23;7.33;;;5.03;;
13741;SDS011;8461;52.356;10.704;2023-02-24T15:21:57;8.40;;;6.53;;
13741;SDS011;8461;52.356;10.704;2023-02-24T15:24:27;11.63;;;8.70;;
13741;SDS011;8461;52.356;10.704;2023-02-24T15:27:00;17.27;;;12.20;;
13741;SDS011;8461;52.356;10.704;2023-02-24T15:29:43;5.77;;;5.17;;
13741;SDS011;8461;52.356;10.704;2023-02-24T15:32:20;11.90;;;9.00;;
13741;SDS011;8461;52.356;10.704;2023-02-24T15:34:48;6.97;;;5.57;;
13741;SDS011;8461;52.356;10.704;2023-02-24T15:37:28;7.47;;;6.13;;
13741;SDS011;8461;52.356;10.704;2023-02-24T15:40:18;11.50;;;7.47;;
13741;SDS011;8461;52.356;10.704;2023-02-24T15:42:56;16.67;;;10.30;;
13741;SDS011;8461;52.356;10.704;2023-02-24T15:45:33;7.07;;;4.10;;
13741;SDS011;8461;52.356;10.704;2023-02-24T15:48:02;18.43;;;8.80;;
13741;SDS011;8461;52.356;10.704;2023-02-24T15:50:42;10.00;;;7.37;;
13741;SDS011;8461;52.356;10.704;2023-02-24T15:53:08;7.13;;;5.27;;
13741;SDS011;8461;52.356;10.704;2023-02-24T15:55:36;5.87;;;5.27;;
13741;SDS011;8461;52.356;10.704;2023-02-24T15:58:04;8.17;;;5.10;;
13741;SDS011;8461;52.356;10.704;2023-02-24T16:00:30;14.77;;;9.47;;
13741;SDS011;8461;52.356;10.704;2023-02-24T16:02:56;7.87;;;5.97;;
13741;SDS011;8461;52.356;10.704;2023-02-24T16:05:22;11.90;;;8.47;;
13741;SDS011;8461;52.356;10.704;2023-02-24T16:07:49;7.97;;;5.57;;
13741;SDS011;8461;52.356;10.704;2023-02-24T16:10:19;6.47;;;4.80;;
13741;SDS011;8461;52.356;10.704;2023-02-24T16:12:48;13.07;;;7.23;;
13741;SDS011;8461;52.356;10.704;2023-02-24T16:15:22;12.63;;;9.33;;
13741;SDS011;8461;52.356;10.704;2023-02-24T16:17:54;8.23;;;6.90;;
13741;SDS011;8461;52.356;10.704;2023-02-24T16:20:22;13.17;;;7.83;;
13741;SDS011;8461;52.356;10.704;2023-02-24T16:22:58;10.33;;;7.77;;
13741;SDS011;8461;52.356;10.704;2023-02-24T16:25:28;13.17;;;7.33;;
13741;SDS011;8461;52.356;10.704;2023-02-24T16:28:03;7.40;;;5.70;;
13741;SDS011;8461;52.356;10.704;2023-02-24T16:30:29;8.10;;;5.53;;
13741;SDS011;8461;52.356;10.704;2023-02-24T16:32:56;16.53;;;9.43;;
13741;SDS011;8461;52.356;10.704;2023-02-24T16:35:22;9.00;;;6.53;;
13741;SDS011;8461;52.356;10.704;2023-02-24T16:37:49;13.40;;;8.00;;
13741;SDS011;8461;52.356;10.704;2023-02-24T16:40:20;10.00;;;6.30;;
13741;SDS011;8461;52.356;10.704;2023-02-24T16:42:47;10.50;;;7.00;;
13741;SDS011;8461;52.356;10.704;2023-02-24T16:45:13;7.50;;;5.80;;
13741;SDS011;8461;52.356;10.704;2023-02-24T16:47:39;6.77;;;6.00;;
13741;SDS011;8461;52.356;10.704;2023-02-24T16:50:05;8.70;;;5.83;;
13741;SDS011;8461;52.356;10.704;2023-02-24T16:52:31;8.07;;;4.80;;
13741;SDS011;8461;52.356;10.704;2023-02-24T16:54:57;8.43;;;5.63;;
13741;SDS011;8461;52.356;10.704;2023-02-24T16:57:23;11.03;;;6.60;;
13741;SDS011;8461;52.356;10.704;2023-02-24T16:59:52;8.27;;;5.70;;
13741;SDS011;8461;52.356;10.704;2023-02-24T17:02:19;7.77;;;5.53;;
13741;SDS011;8461;52.356;10.704;2023-02-24T17:04:45;6.10;;;4.33;;
13741;SDS011;8461;52.356;10.704;2023-02-24T17:07:11;10.30;;;5.57;;
13741;SDS011;8461;52.356;10.704;2023-02-24T17:09:38;8.33;;;6.30;;
13741;SDS011;8461;52.356;10.704;2023-02-24T17:12:04;7.87;;;6.27;;
13741;SDS011;8461;52.356;10.704;2023-02-24T17:14:30;6.73;;;5.33;;
13741;SDS011;8461;52.356;10.704;2023-02-24T17:16:56;8.13;;;5.83;;
13741;SDS011;8461;52.356;10.704;2023-02-24T17:19:22;8.13;;;5.77;;
13741;SDS011;8461;52.356;10.704;2023-02-24T17:21:48;7.70;;;5.50;;
13741;SDS011;8461;52.356;10.704;2023-02-24T17:24:15;6.90;;;6.10;;